Agana Heights, Guam
Current Conditions -  °F | °C
As of 8:54 PM on Friday 31 Oct 2014 (Local Time) from PGUM Reporting Station
Broken Clouds Broken Clouds  
Wind Chill: 77°   Ceiling: 9000
Heat Index: 78°   Visibility: 10mi
Dew Point: 75°   Wind: 0mph
Humidity: 94%   Direction: NA
Pressure: 29.82"   Gusts: NA
Location:  13.47°N, 144.74°E
Report Text: PGUM 311054Z 00000KT 10SM FEW013 SCT050 BKN090 25/24 A2982 RMK AO2 RAE25B44E51 SLP091 P0001 T02500239
Loading
Personal Weather Stations






























Interactive Weather Map
Tropical Storm Tracking
New forecast layout! Learn more

10-Day Weather Forecast

Advertisements
Track Severe Weather on mobile